Minerva Libra — SVAA7 — position and weather

sailwx.info

Track history (hours):
 
Tides and Currents Weather Stations Pressure Air Temp Water Temp Dewpoint Dewpoint Depression Visibility Wind Speed Wind Dir Waves Ship Positions

Minerva Libra

Last reported at 2017-Aug-21 16:37 UTC. Time now 2017-Aug-22 18:45 UTC.
Position N 56°02' W 007°24'.

Length 250 m; draft 8.5 m.

Type: Ship. MMSI: 240766000.

Date/timePositionNaut miles runAvg speedWind from/ knotsBaromVisibWave heightAir tempDewpointWater temp
2017-Aug-21 16:37N 56°02' W 007°24'410.7
2017-Aug-21 16:17N 55°59' W 007°21'1211.3
2017-Aug-21 15:14N 55°48' W 007°11'512.0
2017-Aug-21 14:51N 55°44' W 007°07'412.3
2017-Aug-21 14:30N 55°40' W 007°04'613.1
2017-Aug-21 14:00N 55°35' W 006°58'611.9
2017-Aug-21 13:30N 55°31' W 006°49'612.7
2017-Aug-21 13:00N 55°30' W 006°39'612.4
2017-Aug-21 12:30N 55°28' W 006°28'612.7
2017-Aug-21 12:00N 55°27' W 006°17'612.4
2017-Aug-21 11:30N 55°25' W 006°07'611.1
2017-Aug-21 11:00N 55°22' W 005°59'611.8
2017-Aug-21 10:30N 55°17' W 005°53'510.7
2017-Aug-21 10:00N 55°12' W 005°48'510.8
2017-Aug-21 09:30N 55°08' W 005°43'910.5
2017-Aug-21 08:41N 55°00' W 005°36'210.2
2017-Aug-21 08:30N 54°59' W 005°34'510.1
2017-Aug-21 08:00N 54°55' W 005°29'5 9.7
2017-Aug-21 07:30N 54°50' W 005°25'5 9.3
2017-Aug-21 07:00N 54°47' W 005°20'5 9.1
2017-Aug-21 06:30N 54°43' W 005°16'5 9.1
2017-Aug-21 06:00N 54°39' W 005°13'5 9.9
2017-Aug-21 05:30N 54°34' W 005°10'5 9.6
2017-Aug-21 05:00N 54°29' W 005°08'510.0
2017-Aug-21 04:30N 54°25' W 005°05'510.0
2017-Aug-21 04:00N 54°20' W 005°05'510.3
2017-Aug-21 03:30N 54°15' W 005°07'510.5
2017-Aug-21 03:00N 54°09' W 005°09'510.3
2017-Aug-21 02:30N 54°04' W 005°10'510.6
2017-Aug-21 02:00N 53°59' W 005°11'610.3
2017-Aug-21 01:28N 53°54' W 005°13'510.0
2017-Aug-21 01:00N 53°49' W 005°14'10 9.6
2017-Aug-20 23:58N 53°39' W 005°17'7111.5
2017-Aug-20 17:48N 52°29' W 005°36'512.1
2017-Aug-20 17:21N 52°24' W 005°37'412.1
2017-Aug-20 16:59N 52°19' W 005°38'611.7
2017-Aug-20 16:28N 52°13' W 005°40'511.3
2017-Aug-20 16:00N 52°08' W 005°42'611.4
2017-Aug-20 15:30N 52°03' W 005°44'3310.5
2017-Aug-20 12:22N 51°31' W 005°56'  
2017-Aug-17 06:54N 43°22' W 003°05'23 7.5
2017-Aug-17 03:54N 43°43' W 003°17'5312.8
2017-Aug-16 23:46N 44°32' W 003°45'412.7
2017-Aug-16 23:28N 44°36' W 003°47'14912.6
2017-Aug-16 11:37N 46°55' W 005°05'113.1
2017-Aug-16 11:30N 46°56' W 005°06'1213.5
2017-Aug-16 10:37N 47°07' W 005°13'213.6
2017-Aug-16 10:30N 47°08' W 005°14'713.6
2017-Aug-16 10:00N 47°15' W 005°16'713.2
2017-Aug-16 09:27N 47°22' W 005°20'713.1
2017-Aug-16 08:55N 47°28' W 005°24'612.0
2017-Aug-16 08:26N 47°34' W 005°27'911.7
2017-Aug-16 07:41N 47°42' W 005°32'211.1
2017-Aug-16 07:30N 47°43' W 005°33'6911.2
2017-Aug-16 01:19N 48°52' W 005°50'411.8
2017-Aug-16 01:00N 48°54' W 005°45'8211.8
2017-Aug-15 18:02N 49°36' W 003°57'1212.7
2017-Aug-15 17:07N 49°42' W 003°41'212.7
2017-Aug-15 16:59N 49°42' W 003°39'612.6
2017-Aug-15 16:30N 49°45' W 003°31'612.3
2017-Aug-15 16:00N 49°49' W 003°23'611.9
2017-Aug-15 15:30N 49°52' W 003°15'611.6
2017-Aug-15 14:59N 49°55' W 003°07'511.3
2017-Aug-15 14:30N 49°57' W 002°60'510.7
2017-Aug-15 14:00N 49°59' W 002°52'1110.3
2017-Aug-15 12:56N 50°02' W 002°35'2510.2
2017-Aug-15 10:29N 50°09' W 001°58'611.6
2017-Aug-15 10:01N 50°10' W 001°49'612.1
2017-Aug-15 09:30N 50°12' W 001°40'612.9
2017-Aug-15 09:00N 50°14' W 001°30'713.6
2017-Aug-15 08:31N 50°15' W 001°20'814.2
2017-Aug-15 07:57N 50°17' W 001°08'714.8
2017-Aug-15 07:30N 50°19' W 000°58'714.6
2017-Aug-15 07:00N 50°21' W 000°47'714.2
2017-Aug-15 06:30N 50°23' W 000°36'713.9
2017-Aug-15 06:00N 50°25' W 000°26'713.4
2017-Aug-15 05:31N 50°26' W 000°16'613.0
2017-Aug-15 05:01N 50°28' W 000°06'712.5
2017-Aug-15 04:28N 50°30' E 000°04'512.0
2017-Aug-15 04:00N 50°31' E 000°13'1211.1
2017-Aug-15 02:53N 50°34' E 000°32'510.4
2017-Aug-15 02:25N 50°36' E 000°39'410.8
2017-Aug-15 02:00N 50°39' E 000°44'511.0
2017-Aug-15 01:31N 50°42' E 000°51'611.4
2017-Aug-15 01:01N 50°45' E 000°59'612.1
2017-Aug-15 00:31N 50°49' E 001°07'612.9
2017-Aug-15 00:01N 50°53' E 001°15'713.8
2017-Aug-14 23:30N 50°58' E 001°22'714.3
2017-Aug-14 23:01N 51°03' E 001°30'714.2
2017-Aug-14 22:30N 51°08' E 001°38'713.6
2017-Aug-14 22:00N 51°13' E 001°45'612.8
2017-Aug-14 21:30N 51°19' E 001°50'612.1
2017-Aug-14 21:00N 51°24' E 001°54'611.6
2017-Aug-14 20:30N 51°29' E 001°60'611.3
2017-Aug-14 20:00N 51°33' E 002°06'611.3
2017-Aug-14 19:31N 51°37' E 002°13'610.9
2017-Aug-14 19:00N 51°41' E 002°19'510.6
2017-Aug-14 18:30N 51°45' E 002°24'510.7
2017-Aug-14 18:00N 51°49' E 002°30'510.8
2017-Aug-14 17:30N 51°53' E 002°35'611.1
2017-Aug-14 17:00N 51°59' E 002°38'1611.8
2017-Aug-14 15:39N 52°14' E 002°43'213.1
2017-Aug-14 15:29N 52°16' E 002°45'1613.5
2017-Aug-14 14:17N 52°30' E 002°57'413.7
2017-Aug-14 14:00N 52°34' E 003°00'713.8
2017-Aug-14 13:30N 52°40' E 003°05'3713.3
2017-Aug-14 10:45N 53°15' E 003°26'44911.8
2017-Aug-12 20:50N 60°42' E 004°20'412.5
2017-Aug-12 20:30N 60°45' E 004°25'3 5.4
2017-Aug-12 20:00N 60°45' E 004°31'510.1
2017-Aug-12 19:30N 60°45' E 004°41'510.3
2017-Aug-12 19:00N 60°41' E 004°49'4 8.7
2017-Aug-12 18:30N 60°37' E 004°53'1 0.9
2017-Aug-12 17:58N 60°37' E 004°51'0 0.0
2017-Aug-12 17:28N 60°37' E 004°51'0 0.0
2017-Aug-12 16:58N 60°37' E 004°51'0 0.0
2017-Aug-12 16:28N 60°37' E 004°51'0 0.0
2017-Aug-12 15:58N 60°37' E 004°51'0 0.0
2017-Aug-12 15:28N 60°37' E 004°51'0 0.0
2017-Aug-12 14:58N 60°37' E 004°51'0 0.0
2017-Aug-12 14:28N 60°37' E 004°51'0 0.0
2017-Aug-12 13:58N 60°37' E 004°51'0 0.0
2017-Aug-12 13:25N 60°37' E 004°51'0 0.0
2017-Aug-12 12:58N 60°37' E 004°51'0 0.0
2017-Aug-12 12:28N 60°37' E 004°51'0 0.0
2017-Aug-12 11:58N 60°37' E 004°51'0 0.0
2017-Aug-12 11:28N 60°37' E 004°51'0 0.0
2017-Aug-12 10:58N 60°37' E 004°51'0 0.0
2017-Aug-12 10:28N 60°37' E 004°51'0 0.0
2017-Aug-12 09:58N 60°37' E 004°51'0 0.0
2017-Aug-12 09:28N 60°37' E 004°51'0 0.0
2017-Aug-12 08:58N 60°37' E 004°51'0 0.0
2017-Aug-12 08:28N 60°37' E 004°51'0 0.0
2017-Aug-12 07:58N 60°37' E 004°51'0 0.0
2017-Aug-12 07:28N 60°37' E 004°51'0 0.0
2017-Aug-12 06:58N 60°37' E 004°51'0 0.0
2017-Aug-12 06:28N 60°37' E 004°51'0 0.0
2017-Aug-12 05:58N 60°37' E 004°51'0 0.0
2017-Aug-12 05:28N 60°37' E 004°51'0 0.0
2017-Aug-12 04:58N 60°37' E 004°51'0 0.0
2017-Aug-12 04:28N 60°37' E 004°51'0 0.0
2017-Aug-12 03:58N 60°37' E 004°51'0 0.0
2017-Aug-12 03:28N 60°37' E 004°51'0 0.0
2017-Aug-12 02:58N 60°37' E 004°51'0 0.0
2017-Aug-12 02:28N 60°37' E 004°51'0 0.0
2017-Aug-12 01:58N 60°37' E 004°51'0 0.0
2017-Aug-12 01:28N 60°37' E 004°51'0 0.0
2017-Aug-12 00:58N 60°37' E 004°51'0 0.0
2017-Aug-12 00:28N 60°37' E 004°51'0 0.0
2017-Aug-11 23:58N 60°37' E 004°51'0 0.0
2017-Aug-11 23:28N 60°37' E 004°51'0 0.0
2017-Aug-11 22:58N 60°37' E 004°51'0 0.0
2017-Aug-11 22:28N 60°37' E 004°51'0 0.2
2017-Aug-11 21:59N 60°38' E 004°52'1 2.2
2017-Aug-11 21:30N 60°39' E 004°52'5 9.3
2017-Aug-11 21:00N 60°43' E 004°47'510.5
2017-Aug-11 20:30N 60°45' E 004°37'4 7.7
2017-Aug-11 20:00N 60°47' E 004°31'3 5.3
2017-Aug-11 19:30N 60°46' E 004°28'3 5.9
2017-Aug-11 19:00N 60°43' E 004°26'3 6.1
2017-Aug-11 18:30N 60°40' E 004°25'0 0.3
2017-Aug-11 18:00N 60°40' E 004°25'2 4.3
2017-Aug-11 17:30N 60°42' E 004°25'2 3.2
2017-Aug-11 16:59N 60°40' E 004°25'  
Track history (hours):
 
Tides and Currents Weather Stations Pressure Air Temp Water Temp Dewpoint Dewpoint Depression Visibility Wind Speed Wind Dir Waves Ship Positions

Minerva Libra

Last reported at 2017-Aug-21 16:37 UTC. Time now 2017-Aug-22 18:45 UTC.
Position N 56°02' W 007°24'.

Length 250 m; draft 8.5 m.

Type: Ship. MMSI: 240766000.

Date/timePositionNaut miles runAvg speedWind from/ knotsBaromVisibWave heightAir tempDewpointWater temp
2017-Aug-21 16:37N 56°02' W 007°24'410.7
2017-Aug-21 16:17N 55°59' W 007°21'1211.3
2017-Aug-21 15:14N 55°48' W 007°11'512.0
2017-Aug-21 14:51N 55°44' W 007°07'412.3
2017-Aug-21 14:30N 55°40' W 007°04'613.1
2017-Aug-21 14:00N 55°35' W 006°58'611.9
2017-Aug-21 13:30N 55°31' W 006°49'612.7
2017-Aug-21 13:00N 55°30' W 006°39'612.4
2017-Aug-21 12:30N 55°28' W 006°28'612.7
2017-Aug-21 12:00N 55°27' W 006°17'612.4
2017-Aug-21 11:30N 55°25' W 006°07'611.1
2017-Aug-21 11:00N 55°22' W 005°59'611.8
2017-Aug-21 10:30N 55°17' W 005°53'510.7
2017-Aug-21 10:00N 55°12' W 005°48'510.8
2017-Aug-21 09:30N 55°08' W 005°43'910.5
2017-Aug-21 08:41N 55°00' W 005°36'210.2
2017-Aug-21 08:30N 54°59' W 005°34'510.1
2017-Aug-21 08:00N 54°55' W 005°29'5 9.7
2017-Aug-21 07:30N 54°50' W 005°25'5 9.3
2017-Aug-21 07:00N 54°47' W 005°20'5 9.1
2017-Aug-21 06:30N 54°43' W 005°16'5 9.1
2017-Aug-21 06:00N 54°39' W 005°13'5 9.9
2017-Aug-21 05:30N 54°34' W 005°10'5 9.6
2017-Aug-21 05:00N 54°29' W 005°08'510.0
2017-Aug-21 04:30N 54°25' W 005°05'510.0
2017-Aug-21 04:00N 54°20' W 005°05'510.3
2017-Aug-21 03:30N 54°15' W 005°07'510.5
2017-Aug-21 03:00N 54°09' W 005°09'510.3
2017-Aug-21 02:30N 54°04' W 005°10'510.6
2017-Aug-21 02:00N 53°59' W 005°11'610.3
2017-Aug-21 01:28N 53°54' W 005°13'510.0
2017-Aug-21 01:00N 53°49' W 005°14'10 9.6
2017-Aug-20 23:58N 53°39' W 005°17'7111.5
2017-Aug-20 17:48N 52°29' W 005°36'512.1
2017-Aug-20 17:21N 52°24' W 005°37'412.1
2017-Aug-20 16:59N 52°19' W 005°38'611.7
2017-Aug-20 16:28N 52°13' W 005°40'511.3
2017-Aug-20 16:00N 52°08' W 005°42'611.4
2017-Aug-20 15:30N 52°03' W 005°44'3310.5
2017-Aug-20 12:22N 51°31' W 005°56'  
2017-Aug-17 06:54N 43°22' W 003°05'23 7.5
2017-Aug-17 03:54N 43°43' W 003°17'5312.8
2017-Aug-16 23:46N 44°32' W 003°45'412.7
2017-Aug-16 23:28N 44°36' W 003°47'14912.6
2017-Aug-16 11:37N 46°55' W 005°05'113.1
2017-Aug-16 11:30N 46°56' W 005°06'1213.5
2017-Aug-16 10:37N 47°07' W 005°13'213.6
2017-Aug-16 10:30N 47°08' W 005°14'713.6
2017-Aug-16 10:00N 47°15' W 005°16'713.2
2017-Aug-16 09:27N 47°22' W 005°20'713.1
2017-Aug-16 08:55N 47°28' W 005°24'612.0
2017-Aug-16 08:26N 47°34' W 005°27'911.7
2017-Aug-16 07:41N 47°42' W 005°32'211.1
2017-Aug-16 07:30N 47°43' W 005°33'6911.2
2017-Aug-16 01:19N 48°52' W 005°50'411.8
2017-Aug-16 01:00N 48°54' W 005°45'8211.8
2017-Aug-15 18:02N 49°36' W 003°57'1212.7
2017-Aug-15 17:07N 49°42' W 003°41'212.7
2017-Aug-15 16:59N 49°42' W 003°39'612.6
2017-Aug-15 16:30N 49°45' W 003°31'612.3
2017-Aug-15 16:00N 49°49' W 003°23'611.9
2017-Aug-15 15:30N 49°52' W 003°15'611.6
2017-Aug-15 14:59N 49°55' W 003°07'511.3
2017-Aug-15 14:30N 49°57' W 002°60'510.7
2017-Aug-15 14:00N 49°59' W 002°52'1110.3
2017-Aug-15 12:56N 50°02' W 002°35'2510.2
2017-Aug-15 10:29N 50°09' W 001°58'611.6
2017-Aug-15 10:01N 50°10' W 001°49'612.1
2017-Aug-15 09:30N 50°12' W 001°40'612.9
2017-Aug-15 09:00N 50°14' W 001°30'713.6
2017-Aug-15 08:31N 50°15' W 001°20'814.2
2017-Aug-15 07:57N 50°17' W 001°08'714.8
2017-Aug-15 07:30N 50°19' W 000°58'714.6
2017-Aug-15 07:00N 50°21' W 000°47'714.2
2017-Aug-15 06:30N 50°23' W 000°36'713.9
2017-Aug-15 06:00N 50°25' W 000°26'713.4
2017-Aug-15 05:31N 50°26' W 000°16'613.0
2017-Aug-15 05:01N 50°28' W 000°06'712.5
2017-Aug-15 04:28N 50°30' E 000°04'512.0
2017-Aug-15 04:00N 50°31' E 000°13'1211.1
2017-Aug-15 02:53N 50°34' E 000°32'510.4
2017-Aug-15 02:25N 50°36' E 000°39'410.8
2017-Aug-15 02:00N 50°39' E 000°44'511.0
2017-Aug-15 01:31N 50°42' E 000°51'611.4
2017-Aug-15 01:01N 50°45' E 000°59'612.1
2017-Aug-15 00:31N 50°49' E 001°07'612.9
2017-Aug-15 00:01N 50°53' E 001°15'713.8
2017-Aug-14 23:30N 50°58' E 001°22'714.3
2017-Aug-14 23:01N 51°03' E 001°30'714.2
2017-Aug-14 22:30N 51°08' E 001°38'713.6
2017-Aug-14 22:00N 51°13' E 001°45'612.8
2017-Aug-14 21:30N 51°19' E 001°50'612.1
2017-Aug-14 21:00N 51°24' E 001°54'611.6
2017-Aug-14 20:30N 51°29' E 001°60'611.3
2017-Aug-14 20:00N 51°33' E 002°06'611.3
2017-Aug-14 19:31N 51°37' E 002°13'610.9
2017-Aug-14 19:00N 51°41' E 002°19'510.6
2017-Aug-14 18:30N 51°45' E 002°24'510.7
2017-Aug-14 18:00N 51°49' E 002°30'510.8
2017-Aug-14 17:30N 51°53' E 002°35'611.1
2017-Aug-14 17:00N 51°59' E 002°38'1611.8
2017-Aug-14 15:39N 52°14' E 002°43'213.1
2017-Aug-14 15:29N 52°16' E 002°45'1613.5
2017-Aug-14 14:17N 52°30' E 002°57'413.7
2017-Aug-14 14:00N 52°34' E 003°00'713.8
2017-Aug-14 13:30N 52°40' E 003°05'3713.3
2017-Aug-14 10:45N 53°15' E 003°26'44911.8
2017-Aug-12 20:50N 60°42' E 004°20'412.5
2017-Aug-12 20:30N 60°45' E 004°25'3 5.4
2017-Aug-12 20:00N 60°45' E 004°31'510.1
2017-Aug-12 19:30N 60°45' E 004°41'510.3
2017-Aug-12 19:00N 60°41' E 004°49'4 8.7
2017-Aug-12 18:30N 60°37' E 004°53'1 0.9
2017-Aug-12 17:58N 60°37' E 004°51'0 0.0
2017-Aug-12 17:28N 60°37' E 004°51'0 0.0
2017-Aug-12 16:58N 60°37' E 004°51'0 0.0
2017-Aug-12 16:28N 60°37' E 004°51'0 0.0
2017-Aug-12 15:58N 60°37' E 004°51'0 0.0
2017-Aug-12 15:28N 60°37' E 004°51'0 0.0
2017-Aug-12 14:58N 60°37' E 004°51'0 0.0
2017-Aug-12 14:28N 60°37' E 004°51'0 0.0
2017-Aug-12 13:58N 60°37' E 004°51'0 0.0
2017-Aug-12 13:25N 60°37' E 004°51'0 0.0
2017-Aug-12 12:58N 60°37' E 004°51'0 0.0
2017-Aug-12 12:28N 60°37' E 004°51'0 0.0
2017-Aug-12 11:58N 60°37' E 004°51'0 0.0
2017-Aug-12 11:28N 60°37' E 004°51'0 0.0
2017-Aug-12 10:58N 60°37' E 004°51'0 0.0
2017-Aug-12 10:28N 60°37' E 004°51'0 0.0
2017-Aug-12 09:58N 60°37' E 004°51'0 0.0
2017-Aug-12 09:28N 60°37' E 004°51'0 0.0
2017-Aug-12 08:58N 60°37' E 004°51'0 0.0
2017-Aug-12 08:28N 60°37' E 004°51'0 0.0
2017-Aug-12 07:58N 60°37' E 004°51'0 0.0
2017-Aug-12 07:28N 60°37' E 004°51'0 0.0
2017-Aug-12 06:58N 60°37' E 004°51'0 0.0
2017-Aug-12 06:28N 60°37' E 004°51'0 0.0
2017-Aug-12 05:58N 60°37' E 004°51'0 0.0
2017-Aug-12 05:28N 60°37' E 004°51'0 0.0
2017-Aug-12 04:58N 60°37' E 004°51'0 0.0
2017-Aug-12 04:28N 60°37' E 004°51'0 0.0
2017-Aug-12 03:58N 60°37' E 004°51'0 0.0
2017-Aug-12 03:28N 60°37' E 004°51'0 0.0
2017-Aug-12 02:58N 60°37' E 004°51'0 0.0
2017-Aug-12 02:28N 60°37' E 004°51'0 0.0
2017-Aug-12 01:58N 60°37' E 004°51'0 0.0
2017-Aug-12 01:28N 60°37' E 004°51'0 0.0
2017-Aug-12 00:58N 60°37' E 004°51'0 0.0
2017-Aug-12 00:28N 60°37' E 004°51'0 0.0
2017-Aug-11 23:58N 60°37' E 004°51'0 0.0
2017-Aug-11 23:28N 60°37' E 004°51'0 0.0
2017-Aug-11 22:58N 60°37' E 004°51'0 0.0
2017-Aug-11 22:28N 60°37' E 004°51'0 0.2
2017-Aug-11 21:59N 60°38' E 004°52'1 2.2
2017-Aug-11 21:30N 60°39' E 004°52'5 9.3
2017-Aug-11 21:00N 60°43' E 004°47'510.5
2017-Aug-11 20:30N 60°45' E 004°37'4 7.7
2017-Aug-11 20:00N 60°47' E 004°31'3 5.3
2017-Aug-11 19:30N 60°46' E 004°28'3 5.9
2017-Aug-11 19:00N 60°43' E 004°26'3 6.1
2017-Aug-11 18:30N 60°40' E 004°25'0 0.3
2017-Aug-11 18:00N 60°40' E 004°25'2 4.3
2017-Aug-11 17:30N 60°42' E 004°25'2 3.2
2017-Aug-11 16:59N 60°40' E 004°25'  

Dump ship's entire track history